Gladstone, Nebraska
Current Conditions -  °F | °C
As of 8:15 PM on Friday 19 Dec 2014 (Local Time) from KHJH Reporting Station
Haze Haze  
Wind Chill: 28°   Ceiling: 500
Heat Index: 32°   Visibility: 4mi
Dew Point: 31°   Wind: 5mph
Humidity: 94%   Direction: 170°S
Pressure: 30.11"   Gusts: NA
Location:  40.1696°N, 97.2152°W
Report Text: KHJH 200215Z AUTO 17004KT 4SM BR OVC005 00/M01 A3011 RMK AO2 T00021007
Loading
Personal Weather Stations






























Interactive Weather Map New forecast layout! Learn more

10-Day Weather Forecast

Advertisements
Track Severe Weather on mobile